sensor_id;sensor_type;location;lat;lon;timestamp;P1;durP1;ratioP1;P2;durP2;ratioP2
17361;SDS011;8798;51.938;4.348;2023-05-07T00:00:44;15.70;;;9.07;;
17361;SDS011;8798;51.938;4.348;2023-05-07T00:03:12;15.17;;;9.30;;
17361;SDS011;8798;51.938;4.348;2023-05-07T00:05:40;13.27;;;8.47;;
17361;SDS011;8798;51.938;4.348;2023-05-07T00:08:08;19.63;;;9.53;;
17361;SDS011;8798;51.938;4.348;2023-05-07T00:10:37;16.37;;;9.07;;
17361;SDS011;8798;51.938;4.348;2023-05-07T00:13:06;14.63;;;8.93;;
17361;SDS011;8798;51.938;4.348;2023-05-07T00:15:34;15.37;;;8.43;;
17361;SDS011;8798;51.938;4.348;2023-05-07T00:18:01;17.90;;;9.47;;
17361;SDS011;8798;51.938;4.348;2023-05-07T00:20:29;14.17;;;8.53;;
17361;SDS011;8798;51.938;4.348;2023-05-07T00:23:00;16.30;;;9.50;;
17361;SDS011;8798;51.938;4.348;2023-05-07T00:25:27;17.70;;;9.20;;
17361;SDS011;8798;51.938;4.348;2023-05-07T00:27:57;18.17;;;9.07;;
17361;SDS011;8798;51.938;4.348;2023-05-07T00:30:28;15.97;;;9.63;;
17361;SDS011;8798;51.938;4.348;2023-05-07T00:32:56;17.33;;;10.00;;
17361;SDS011;8798;51.938;4.348;2023-05-07T00:35:24;16.80;;;9.03;;
17361;SDS011;8798;51.938;4.348;2023-05-07T00:37:52;19.83;;;8.77;;
17361;SDS011;8798;51.938;4.348;2023-05-07T00:40:20;13.50;;;7.90;;
17361;SDS011;8798;51.938;4.348;2023-05-07T00:42:47;16.97;;;8.90;;
17361;SDS011;8798;51.938;4.348;2023-05-07T00:45:17;14.57;;;8.60;;
17361;SDS011;8798;51.938;4.348;2023-05-07T00:47:45;14.93;;;9.30;;
17361;SDS011;8798;51.938;4.348;2023-05-07T00:50:13;14.50;;;8.90;;
17361;SDS011;8798;51.938;4.348;2023-05-07T00:52:41;16.33;;;9.07;;
17361;SDS011;8798;51.938;4.348;2023-05-07T00:55:09;18.80;;;9.50;;
17361;SDS011;8798;51.938;4.348;2023-05-07T00:57:39;16.43;;;9.40;;
17361;SDS011;8798;51.938;4.348;2023-05-07T01:00:08;14.83;;;9.30;;
17361;SDS011;8798;51.938;4.348;2023-05-07T01:02:41;14.87;;;9.20;;
17361;SDS011;8798;51.938;4.348;2023-05-07T01:05:10;14.37;;;9.73;;
17361;SDS011;8798;51.938;4.348;2023-05-07T01:07:40;17.53;;;10.33;;
17361;SDS011;8798;51.938;4.348;2023-05-07T01:10:10;16.60;;;9.70;;
17361;SDS011;8798;51.938;4.348;2023-05-07T01:12:39;16.90;;;9.70;;
17361;SDS011;8798;51.938;4.348;2023-05-07T01:15:08;15.80;;;10.10;;
17361;SDS011;8798;51.938;4.348;2023-05-07T01:17:37;18.13;;;10.43;;
17361;SDS011;8798;51.938;4.348;2023-05-07T01:20:09;16.53;;;10.27;;
17361;SDS011;8798;51.938;4.348;2023-05-07T01:22:40;15.80;;;10.07;;
17361;SDS011;8798;51.938;4.348;2023-05-07T01:25:08;16.47;;;9.93;;
17361;SDS011;8798;51.938;4.348;2023-05-07T01:27:36;12.40;;;8.83;;
17361;SDS011;8798;51.938;4.348;2023-05-07T01:30:04;16.80;;;9.13;;
17361;SDS011;8798;51.938;4.348;2023-05-07T01:32:33;15.47;;;9.80;;
17361;SDS011;8798;51.938;4.348;2023-05-07T01:35:05;14.60;;;9.93;;
17361;SDS011;8798;51.938;4.348;2023-05-07T01:37:37;17.37;;;9.87;;
17361;SDS011;8798;51.938;4.348;2023-05-07T01:40:07;14.60;;;9.90;;
17361;SDS011;8798;51.938;4.348;2023-05-07T01:42:36;13.80;;;9.20;;
17361;SDS011;8798;51.938;4.348;2023-05-07T01:45:04;15.27;;;9.93;;
17361;SDS011;8798;51.938;4.348;2023-05-07T01:47:33;14.37;;;9.17;;
17361;SDS011;8798;51.938;4.348;2023-05-07T01:50:02;15.70;;;9.47;;
17361;SDS011;8798;51.938;4.348;2023-05-07T01:52:31;16.07;;;10.50;;
17361;SDS011;8798;51.938;4.348;2023-05-07T01:54:59;14.63;;;9.10;;
17361;SDS011;8798;51.938;4.348;2023-05-07T01:57:28;12.47;;;8.97;;
17361;SDS011;8798;51.938;4.348;2023-05-07T01:59:56;16.63;;;9.73;;
17361;SDS011;8798;51.938;4.348;2023-05-07T02:02:24;15.23;;;9.00;;
17361;SDS011;8798;51.938;4.348;2023-05-07T02:04:52;16.50;;;9.30;;
17361;SDS011;8798;51.938;4.348;2023-05-07T02:07:20;16.97;;;8.97;;
17361;SDS011;8798;51.938;4.348;2023-05-07T02:09:48;13.33;;;9.10;;
17361;SDS011;8798;51.938;4.348;2023-05-07T02:12:15;14.73;;;8.50;;
17361;SDS011;8798;51.938;4.348;2023-05-07T02:14:45;13.60;;;8.60;;
17361;SDS011;8798;51.938;4.348;2023-05-07T02:17:12;14.37;;;9.10;;
17361;SDS011;8798;51.938;4.348;2023-05-07T02:19:40;13.93;;;8.23;;
17361;SDS011;8798;51.938;4.348;2023-05-07T02:22:09;13.23;;;8.30;;
17361;SDS011;8798;51.938;4.348;2023-05-07T02:24:37;13.10;;;8.60;;
17361;SDS011;8798;51.938;4.348;2023-05-07T02:27:05;15.70;;;8.37;;
17361;SDS011;8798;51.938;4.348;2023-05-07T02:29:33;12.97;;;7.97;;
17361;SDS011;8798;51.938;4.348;2023-05-07T02:32:02;11.47;;;7.60;;
17361;SDS011;8798;51.938;4.348;2023-05-07T02:34:30;9.33;;;6.63;;
17361;SDS011;8798;51.938;4.348;2023-05-07T02:36:58;13.27;;;7.63;;
17361;SDS011;8798;51.938;4.348;2023-05-07T02:39:25;11.87;;;8.10;;
17361;SDS011;8798;51.938;4.348;2023-05-07T02:41:53;11.60;;;7.50;;
17361;SDS011;8798;51.938;4.348;2023-05-07T02:44:21;12.13;;;8.00;;
17361;SDS011;8798;51.938;4.348;2023-05-07T02:46:49;11.53;;;8.03;;
17361;SDS011;8798;51.938;4.348;2023-05-07T02:49:18;11.60;;;7.77;;
17361;SDS011;8798;51.938;4.348;2023-05-07T02:51:47;10.67;;;7.03;;
17361;SDS011;8798;51.938;4.348;2023-05-07T02:54:14;11.67;;;7.27;;
17361;SDS011;8798;51.938;4.348;2023-05-07T02:56:43;11.10;;;7.17;;
17361;SDS011;8798;51.938;4.348;2023-05-07T02:59:11;10.37;;;7.20;;
17361;SDS011;8798;51.938;4.348;2023-05-07T03:01:39;12.53;;;7.50;;
17361;SDS011;8798;51.938;4.348;2023-05-07T03:04:08;9.63;;;6.63;;
17361;SDS011;8798;51.938;4.348;2023-05-07T03:06:37;10.90;;;7.03;;
17361;SDS011;8798;51.938;4.348;2023-05-07T03:09:05;11.10;;;6.83;;
17361;SDS011;8798;51.938;4.348;2023-05-07T03:11:33;9.80;;;7.10;;
17361;SDS011;8798;51.938;4.348;2023-05-07T03:14:01;11.43;;;7.43;;
17361;SDS011;8798;51.938;4.348;2023-05-07T03:16:29;10.17;;;6.53;;
17361;SDS011;8798;51.938;4.348;2023-05-07T03:18:57;10.20;;;7.20;;
17361;SDS011;8798;51.938;4.348;2023-05-07T03:21:25;10.83;;;7.07;;
17361;SDS011;8798;51.938;4.348;2023-05-07T03:23:55;10.00;;;6.80;;
17361;SDS011;8798;51.938;4.348;2023-05-07T03:26:22;13.17;;;6.70;;
17361;SDS011;8798;51.938;4.348;2023-05-07T03:28:51;8.90;;;6.70;;
17361;SDS011;8798;51.938;4.348;2023-05-07T03:31:19;10.10;;;7.07;;
17361;SDS011;8798;51.938;4.348;2023-05-07T03:33:50;11.57;;;7.50;;
17361;SDS011;8798;51.938;4.348;2023-05-07T03:36:19;9.00;;;6.37;;
17361;SDS011;8798;51.938;4.348;2023-05-07T03:38:47;8.93;;;6.33;;
17361;SDS011;8798;51.938;4.348;2023-05-07T03:41:17;10.13;;;6.30;;
17361;SDS011;8798;51.938;4.348;2023-05-07T03:43:44;10.60;;;6.80;;
17361;SDS011;8798;51.938;4.348;2023-05-07T03:46:12;8.60;;;6.23;;
17361;SDS011;8798;51.938;4.348;2023-05-07T03:48:40;8.00;;;6.20;;
17361;SDS011;8798;51.938;4.348;2023-05-07T03:51:08;8.23;;;6.13;;
17361;SDS011;8798;51.938;4.348;2023-05-07T03:53:35;9.30;;;6.10;;
17361;SDS011;8798;51.938;4.348;2023-05-07T03:56:03;8.67;;;6.33;;
17361;SDS011;8798;51.938;4.348;2023-05-07T03:58:32;9.37;;;6.47;;
17361;SDS011;8798;51.938;4.348;2023-05-07T04:01:01;12.13;;;6.73;;
17361;SDS011;8798;51.938;4.348;2023-05-07T04:03:29;8.87;;;6.17;;
17361;SDS011;8798;51.938;4.348;2023-05-07T04:05:57;8.83;;;5.73;;
17361;SDS011;8798;51.938;4.348;2023-05-07T04:08:24;9.03;;;6.20;;
17361;SDS011;8798;51.938;4.348;2023-05-07T04:10:54;9.33;;;6.20;;
17361;SDS011;8798;51.938;4.348;2023-05-07T04:13:22;12.10;;;6.60;;
17361;SDS011;8798;51.938;4.348;2023-05-07T04:15:51;8.73;;;5.87;;
17361;SDS011;8798;51.938;4.348;2023-05-07T04:18:20;8.17;;;5.93;;
17361;SDS011;8798;51.938;4.348;2023-05-07T04:20:48;9.17;;;6.27;;
17361;SDS011;8798;51.938;4.348;2023-05-07T04:23:16;6.47;;;5.37;;
17361;SDS011;8798;51.938;4.348;2023-05-07T04:25:44;9.03;;;5.60;;
17361;SDS011;8798;51.938;4.348;2023-05-07T04:28:12;9.93;;;5.90;;
17361;SDS011;8798;51.938;4.348;2023-05-07T04:30:40;8.57;;;5.60;;
17361;SDS011;8798;51.938;4.348;2023-05-07T04:33:09;7.67;;;5.23;;
17361;SDS011;8798;51.938;4.348;2023-05-07T04:35:37;8.07;;;5.73;;
17361;SDS011;8798;51.938;4.348;2023-05-07T04:38:05;8.00;;;5.37;;
17361;SDS011;8798;51.938;4.348;2023-05-07T04:40:33;9.30;;;5.00;;
17361;SDS011;8798;51.938;4.348;2023-05-07T04:43:03;9.17;;;5.50;;
17361;SDS011;8798;51.938;4.348;2023-05-07T04:45:31;9.37;;;5.20;;
17361;SDS011;8798;51.938;4.348;2023-05-07T04:47:59;8.80;;;5.00;;
17361;SDS011;8798;51.938;4.348;2023-05-07T04:50:28;9.63;;;5.43;;
17361;SDS011;8798;51.938;4.348;2023-05-07T04:52:56;8.10;;;5.00;;
17361;SDS011;8798;51.938;4.348;2023-05-07T04:55:24;7.33;;;5.27;;
17361;SDS011;8798;51.938;4.348;2023-05-07T04:57:52;10.23;;;6.00;;
17361;SDS011;8798;51.938;4.348;2023-05-07T05:00:20;8.33;;;5.30;;
17361;SDS011;8798;51.938;4.348;2023-05-07T05:02:49;9.13;;;5.60;;
17361;SDS011;8798;51.938;4.348;2023-05-07T05:05:17;7.80;;;5.33;;
17361;SDS011;8798;51.938;4.348;2023-05-07T05:07:46;7.60;;;5.70;;
17361;SDS011;8798;51.938;4.348;2023-05-07T05:10:14;7.60;;;5.60;;
17361;SDS011;8798;51.938;4.348;2023-05-07T05:12:42;7.20;;;5.10;;
17361;SDS011;8798;51.938;4.348;2023-05-07T05:15:11;9.37;;;5.70;;
17361;SDS011;8798;51.938;4.348;2023-05-07T05:17:39;7.30;;;5.40;;
17361;SDS011;8798;51.938;4.348;2023-05-07T05:20:07;6.83;;;4.87;;
17361;SDS011;8798;51.938;4.348;2023-05-07T05:22:38;7.53;;;5.23;;
17361;SDS011;8798;51.938;4.348;2023-05-07T05:25:07;7.50;;;5.63;;
17361;SDS011;8798;51.938;4.348;2023-05-07T05:27:36;9.30;;;5.90;;
17361;SDS011;8798;51.938;4.348;2023-05-07T05:30:08;9.20;;;5.87;;
17361;SDS011;8798;51.938;4.348;2023-05-07T05:32:37;8.87;;;6.00;;
17361;SDS011;8798;51.938;4.348;2023-05-07T05:35:05;9.33;;;5.77;;
17361;SDS011;8798;51.938;4.348;2023-05-07T05:37:34;10.37;;;5.80;;
17361;SDS011;8798;51.938;4.348;2023-05-07T05:40:01;8.40;;;5.97;;
17361;SDS011;8798;51.938;4.348;2023-05-07T05:42:31;9.70;;;6.20;;
17361;SDS011;8798;51.938;4.348;2023-05-07T05:44:59;9.30;;;5.73;;
17361;SDS011;8798;51.938;4.348;2023-05-07T05:47:27;9.47;;;6.17;;
17361;SDS011;8798;51.938;4.348;2023-05-07T05:49:55;10.63;;;5.90;;
17361;SDS011;8798;51.938;4.348;2023-05-07T05:52:23;8.57;;;6.17;;
17361;SDS011;8798;51.938;4.348;2023-05-07T05:54:51;10.03;;;6.30;;
17361;SDS011;8798;51.938;4.348;2023-05-07T05:57:18;9.80;;;6.10;;
17361;SDS011;8798;51.938;4.348;2023-05-07T05:59:48;8.67;;;6.27;;
17361;SDS011;8798;51.938;4.348;2023-05-07T06:02:16;9.03;;;6.20;;
17361;SDS011;8798;51.938;4.348;2023-05-07T06:04:44;10.40;;;6.07;;
17361;SDS011;8798;51.938;4.348;2023-05-07T06:07:12;8.23;;;6.07;;
17361;SDS011;8798;51.938;4.348;2023-05-07T06:09:40;9.97;;;6.80;;
17361;SDS011;8798;51.938;4.348;2023-05-07T06:12:07;7.80;;;5.90;;
17361;SDS011;8798;51.938;4.348;2023-05-07T06:14:35;9.80;;;6.63;;
17361;SDS011;8798;51.938;4.348;2023-05-07T06:17:05;8.47;;;6.10;;
17361;SDS011;8798;51.938;4.348;2023-05-07T06:19:33;9.30;;;6.77;;
17361;SDS011;8798;51.938;4.348;2023-05-07T06:22:01;9.90;;;6.73;;
17361;SDS011;8798;51.938;4.348;2023-05-07T06:24:29;11.07;;;6.40;;
17361;SDS011;8798;51.938;4.348;2023-05-07T06:26:56;9.13;;;6.53;;
17361;SDS011;8798;51.938;4.348;2023-05-07T06:29:25;11.63;;;6.77;;
17361;SDS011;8798;51.938;4.348;2023-05-07T06:31:53;11.67;;;7.10;;
17361;SDS011;8798;51.938;4.348;2023-05-07T06:34:23;11.63;;;7.03;;
17361;SDS011;8798;51.938;4.348;2023-05-07T06:36:51;9.37;;;6.70;;
17361;SDS011;8798;51.938;4.348;2023-05-07T06:39:18;9.33;;;6.27;;
17361;SDS011;8798;51.938;4.348;2023-05-07T06:41:46;10.57;;;6.80;;
17361;SDS011;8798;51.938;4.348;2023-05-07T06:44:14;9.60;;;6.63;;
17361;SDS011;8798;51.938;4.348;2023-05-07T06:46:42;9.93;;;6.53;;
17361;SDS011;8798;51.938;4.348;2023-05-07T06:49:10;9.67;;;6.50;;
17361;SDS011;8798;51.938;4.348;2023-05-07T06:51:39;10.83;;;6.60;;
17361;SDS011;8798;51.938;4.348;2023-05-07T06:54:07;8.33;;;6.43;;
17361;SDS011;8798;51.938;4.348;2023-05-07T06:56:35;8.93;;;6.43;;
17361;SDS011;8798;51.938;4.348;2023-05-07T06:59:03;8.63;;;5.93;;
17361;SDS011;8798;51.938;4.348;2023-05-07T07:01:31;10.63;;;6.90;;
17361;SDS011;8798;51.938;4.348;2023-05-07T07:03:59;8.77;;;6.60;;
17361;SDS011;8798;51.938;4.348;2023-05-07T07:06:26;10.10;;;6.40;;
17361;SDS011;8798;51.938;4.348;2023-05-07T07:08:56;7.47;;;5.37;;
17361;SDS011;8798;51.938;4.348;2023-05-07T07:11:23;10.53;;;5.53;;
17361;SDS011;8798;51.938;4.348;2023-05-07T07:13:52;11.73;;;5.83;;
17361;SDS011;8798;51.938;4.348;2023-05-07T07:16:21;9.43;;;5.40;;
17361;SDS011;8798;51.938;4.348;2023-05-07T07:18:49;8.43;;;5.43;;
17361;SDS011;8798;51.938;4.348;2023-05-07T07:21:16;10.00;;;5.40;;
17361;SDS011;8798;51.938;4.348;2023-05-07T07:23:44;10.03;;;5.47;;
17361;SDS011;8798;51.938;4.348;2023-05-07T07:26:14;7.63;;;5.20;;
17361;SDS011;8798;51.938;4.348;2023-05-07T07:28:42;8.23;;;5.07;;
17361;SDS011;8798;51.938;4.348;2023-05-07T07:31:11;8.00;;;4.90;;
17361;SDS011;8798;51.938;4.348;2023-05-07T07:33:39;8.30;;;5.23;;
17361;SDS011;8798;51.938;4.348;2023-05-07T07:36:07;7.93;;;4.67;;
17361;SDS011;8798;51.938;4.348;2023-05-07T07:38:35;7.47;;;4.90;;
17361;SDS011;8798;51.938;4.348;2023-05-07T07:41:03;9.93;;;4.83;;
17361;SDS011;8798;51.938;4.348;2023-05-07T07:43:32;5.00;;;4.07;;
17361;SDS011;8798;51.938;4.348;2023-05-07T07:46:00;7.63;;;4.70;;
17361;SDS011;8798;51.938;4.348;2023-05-07T07:48:28;10.17;;;4.53;;
17361;SDS011;8798;51.938;4.348;2023-05-07T07:50:56;6.20;;;4.63;;
17361;SDS011;8798;51.938;4.348;2023-05-07T07:53:24;6.33;;;4.30;;
17361;SDS011;8798;51.938;4.348;2023-05-07T07:55:52;8.57;;;4.40;;
17361;SDS011;8798;51.938;4.348;2023-05-07T07:58:25;5.87;;;3.97;;
17361;SDS011;8798;51.938;4.348;2023-05-07T08:00:54;8.77;;;4.00;;
17361;SDS011;8798;51.938;4.348;2023-05-07T08:03:24;7.83;;;3.97;;
17361;SDS011;8798;51.938;4.348;2023-05-07T08:05:52;6.37;;;3.93;;
17361;SDS011;8798;51.938;4.348;2023-05-07T08:08:20;8.20;;;4.30;;
17361;SDS011;8798;51.938;4.348;2023-05-07T08:10:48;7.00;;;4.00;;
17361;SDS011;8798;51.938;4.348;2023-05-07T08:13:17;8.70;;;3.93;;
17361;SDS011;8798;51.938;4.348;2023-05-07T08:15:45;6.30;;;4.33;;
17361;SDS011;8798;51.938;4.348;2023-05-07T08:18:14;7.90;;;4.50;;
17361;SDS011;8798;51.938;4.348;2023-05-07T08:20:42;6.83;;;3.80;;
17361;SDS011;8798;51.938;4.348;2023-05-07T08:23:10;9.07;;;4.33;;
17361;SDS011;8798;51.938;4.348;2023-05-07T08:25:38;5.87;;;3.63;;
17361;SDS011;8798;51.938;4.348;2023-05-07T08:28:06;9.67;;;4.27;;
17361;SDS011;8798;51.938;4.348;2023-05-07T08:30:35;6.57;;;4.23;;
17361;SDS011;8798;51.938;4.348;2023-05-07T08:33:03;8.93;;;4.37;;
17361;SDS011;8798;51.938;4.348;2023-05-07T08:35:32;8.30;;;4.50;;
17361;SDS011;8798;51.938;4.348;2023-05-07T08:38:00;8.73;;;4.53;;
17361;SDS011;8798;51.938;4.348;2023-05-07T08:40:28;6.20;;;4.07;;
17361;SDS011;8798;51.938;4.348;2023-05-07T08:42:56;7.13;;;3.83;;
17361;SDS011;8798;51.938;4.348;2023-05-07T08:45:25;8.57;;;4.43;;
17361;SDS011;8798;51.938;4.348;2023-05-07T08:47:57;9.03;;;4.87;;
17361;SDS011;8798;51.938;4.348;2023-05-07T08:50:27;8.60;;;4.57;;
17361;SDS011;8798;51.938;4.348;2023-05-07T08:52:56;8.33;;;4.60;;
17361;SDS011;8798;51.938;4.348;2023-05-07T08:55:24;9.50;;;5.37;;
17361;SDS011;8798;51.938;4.348;2023-05-07T08:57:52;8.50;;;5.30;;
17361;SDS011;8798;51.938;4.348;2023-05-07T09:00:20;6.80;;;4.43;;
17361;SDS011;8798;51.938;4.348;2023-05-07T09:02:48;8.43;;;4.60;;
17361;SDS011;8798;51.938;4.348;2023-05-07T09:05:16;7.90;;;4.33;;
17361;SDS011;8798;51.938;4.348;2023-05-07T09:07:44;6.37;;;4.20;;
17361;SDS011;8798;51.938;4.348;2023-05-07T09:10:14;7.50;;;4.40;;
17361;SDS011;8798;51.938;4.348;2023-05-07T09:12:42;8.13;;;4.67;;
17361;SDS011;8798;51.938;4.348;2023-05-07T09:15:10;7.97;;;4.57;;
17361;SDS011;8798;51.938;4.348;2023-05-07T09:17:38;13.70;;;4.67;;
17361;SDS011;8798;51.938;4.348;2023-05-07T09:20:07;8.27;;;4.70;;
17361;SDS011;8798;51.938;4.348;2023-05-07T09:22:36;7.13;;;4.43;;
17361;SDS011;8798;51.938;4.348;2023-05-07T09:25:05;7.07;;;4.20;;
17361;SDS011;8798;51.938;4.348;2023-05-07T09:27:36;4.93;;;3.87;;
17361;SDS011;8798;51.938;4.348;2023-05-07T09:30:04;9.90;;;4.18;;
17361;SDS011;8798;51.938;4.348;2023-05-07T09:32:34;9.47;;;4.20;;
17361;SDS011;8798;51.938;4.348;2023-05-07T09:35:04;7.43;;;3.90;;
17361;SDS011;8798;51.938;4.348;2023-05-07T09:37:33;6.67;;;3.70;;
17361;SDS011;8798;51.938;4.348;2023-05-07T09:40:01;6.43;;;4.15;;
17361;SDS011;8798;51.938;4.348;2023-05-07T09:42:29;8.87;;;3.80;;
17361;SDS011;8798;51.938;4.348;2023-05-07T09:44:59;5.25;;;3.67;;
17361;SDS011;8798;51.938;4.348;2023-05-07T09:47:27;6.77;;;3.20;;
17361;SDS011;8798;51.938;4.348;2023-05-07T09:50:00;6.87;;;3.07;;
17361;SDS011;8798;51.938;4.348;2023-05-07T09:52:32;7.57;;;3.22;;
17361;SDS011;8798;51.938;4.348;2023-05-07T09:55:01;7.47;;;3.85;;
17361;SDS011;8798;51.938;4.348;2023-05-07T09:57:29;8.50;;;4.50;;
17361;SDS011;8798;51.938;4.348;2023-05-07T10:00:00;8.43;;;4.55;;
17361;SDS011;8798;51.938;4.348;2023-05-07T10:02:30;7.82;;;3.97;;
17361;SDS011;8798;51.938;4.348;2023-05-07T10:05:01;5.82;;;3.40;;
17361;SDS011;8798;51.938;4.348;2023-05-07T10:07:30;6.55;;;3.90;;
17361;SDS011;8798;51.938;4.348;2023-05-07T10:09:58;6.30;;;3.20;;
17361;SDS011;8798;51.938;4.348;2023-05-07T10:12:27;6.40;;;2.67;;
17361;SDS011;8798;51.938;4.348;2023-05-07T10:14:56;7.13;;;3.17;;
17361;SDS011;8798;51.938;4.348;2023-05-07T10:17:25;6.60;;;2.63;;
17361;SDS011;8798;51.938;4.348;2023-05-07T10:19:54;8.40;;;3.67;;
17361;SDS011;8798;51.938;4.348;2023-05-07T10:22:22;7.45;;;3.80;;
17361;SDS011;8798;51.938;4.348;2023-05-07T10:24:51;6.97;;;3.78;;
17361;SDS011;8798;51.938;4.348;2023-05-07T10:27:21;6.00;;;3.80;;
17361;SDS011;8798;51.938;4.348;2023-05-07T10:29:54;8.48;;;3.33;;
17361;SDS011;8798;51.938;4.348;2023-05-07T10:32:42;9.88;;;3.60;;
17361;SDS011;8798;51.938;4.348;2023-05-07T10:35:14;6.20;;;3.20;;
17361;SDS011;8798;51.938;4.348;2023-05-07T10:37:45;4.80;;;2.95;;
17361;SDS011;8798;51.938;4.348;2023-05-07T10:40:14;8.80;;;3.88;;
17361;SDS011;8798;51.938;4.348;2023-05-07T10:42:53;7.47;;;3.60;;
17361;SDS011;8798;51.938;4.348;2023-05-07T10:45:22;7.38;;;3.30;;
17361;SDS011;8798;51.938;4.348;2023-05-07T10:48:08;8.00;;;4.10;;
17361;SDS011;8798;51.938;4.348;2023-05-07T10:50:40;6.25;;;3.55;;
17361;SDS011;8798;51.938;4.348;2023-05-07T10:58:52;6.65;;;3.67;;
17361;SDS011;8798;51.938;4.348;2023-05-07T11:04:22;6.80;;;3.80;;
17361;SDS011;8798;51.938;4.348;2023-05-07T11:07:09;6.25;;;3.63;;
17361;SDS011;8798;51.938;4.348;2023-05-07T11:12:46;7.03;;;3.83;;
17361;SDS011;8798;51.938;4.348;2023-05-07T11:18:06;7.43;;;3.90;;
17361;SDS011;8798;51.938;4.348;2023-05-07T11:20:54;6.35;;;3.72;;
17361;SDS011;8798;51.938;4.348;2023-05-07T11:26:24;7.65;;;4.00;;
17361;SDS011;8798;51.938;4.348;2023-05-07T11:28:52;6.70;;;3.95;;
17361;SDS011;8798;51.938;4.348;2023-05-07T11:31:21;10.13;;;4.85;;
17361;SDS011;8798;51.938;4.348;2023-05-07T11:33:54;8.90;;;4.53;;
17361;SDS011;8798;51.938;4.348;2023-05-07T11:36:24;7.25;;;4.10;;
17361;SDS011;8798;51.938;4.348;2023-05-07T11:38:53;9.27;;;4.15;;
17361;SDS011;8798;51.938;4.348;2023-05-07T11:41:20;7.57;;;4.07;;
17361;SDS011;8798;51.938;4.348;2023-05-07T11:43:55;6.93;;;4.28;;
17361;SDS011;8798;51.938;4.348;2023-05-07T11:46:27;7.85;;;4.78;;
17361;SDS011;8798;51.938;4.348;2023-05-07T11:48:56;7.93;;;5.05;;
17361;SDS011;8798;51.938;4.348;2023-05-07T11:51:25;10.70;;;5.60;;
17361;SDS011;8798;51.938;4.348;2023-05-07T11:53:53;10.65;;;5.85;;
17361;SDS011;8798;51.938;4.348;2023-05-07T11:56:21;8.00;;;4.97;;
17361;SDS011;8798;51.938;4.348;2023-05-07T11:58:49;10.10;;;5.70;;
17361;SDS011;8798;51.938;4.348;2023-05-07T12:01:18;8.25;;;4.88;;
17361;SDS011;8798;51.938;4.348;2023-05-07T12:03:46;9.13;;;4.97;;
17361;SDS011;8798;51.938;4.348;2023-05-07T12:06:15;9.52;;;4.13;;
17361;SDS011;8798;51.938;4.348;2023-05-07T12:08:45;8.98;;;5.00;;
17361;SDS011;8798;51.938;4.348;2023-05-07T12:11:14;7.85;;;4.78;;
17361;SDS011;8798;51.938;4.348;2023-05-07T12:13:44;8.55;;;5.72;;
17361;SDS011;8798;51.938;4.348;2023-05-07T12:16:12;7.82;;;4.75;;
17361;SDS011;8798;51.938;4.348;2023-05-07T12:18:40;7.82;;;5.43;;
17361;SDS011;8798;51.938;4.348;2023-05-07T12:21:08;12.77;;;8.05;;
17361;SDS011;8798;51.938;4.348;2023-05-07T12:23:37;15.57;;;9.27;;
17361;SDS011;8798;51.938;4.348;2023-05-07T12:26:07;12.13;;;8.27;;
17361;SDS011;8798;51.938;4.348;2023-05-07T12:28:36;13.25;;;8.25;;
17361;SDS011;8798;51.938;4.348;2023-05-07T12:31:06;11.40;;;7.35;;
17361;SDS011;8798;51.938;4.348;2023-05-07T12:33:34;11.68;;;8.48;;
17361;SDS011;8798;51.938;4.348;2023-05-07T12:36:03;12.88;;;8.68;;
17361;SDS011;8798;51.938;4.348;2023-05-07T12:38:34;14.57;;;8.50;;
17361;SDS011;8798;51.938;4.348;2023-05-07T12:41:04;16.35;;;9.02;;
17361;SDS011;8798;51.938;4.348;2023-05-07T12:43:34;11.65;;;8.40;;
17361;SDS011;8798;51.938;4.348;2023-05-07T12:46:03;21.75;;;10.23;;
17361;SDS011;8798;51.938;4.348;2023-05-07T12:48:33;15.80;;;10.07;;
17361;SDS011;8798;51.938;4.348;2023-05-07T12:51:03;16.70;;;10.52;;
17361;SDS011;8798;51.938;4.348;2023-05-07T12:53:32;19.63;;;9.77;;
17361;SDS011;8798;51.938;4.348;2023-05-07T12:56:02;15.03;;;9.90;;
17361;SDS011;8798;51.938;4.348;2023-05-07T12:58:34;16.05;;;11.13;;
17361;SDS011;8798;51.938;4.348;2023-05-07T13:01:05;16.57;;;10.93;;
17361;SDS011;8798;51.938;4.348;2023-05-07T13:03:37;14.75;;;10.63;;
17361;SDS011;8798;51.938;4.348;2023-05-07T13:06:06;15.23;;;10.47;;
17361;SDS011;8798;51.938;4.348;2023-05-07T13:08:36;15.43;;;9.98;;
17361;SDS011;8798;51.938;4.348;2023-05-07T13:11:07;17.07;;;9.97;;
17361;SDS011;8798;51.938;4.348;2023-05-07T13:13:38;16.37;;;11.03;;
17361;SDS011;8798;51.938;4.348;2023-05-07T13:16:08;16.33;;;10.18;;
17361;SDS011;8798;51.938;4.348;2023-05-07T13:18:37;19.60;;;10.90;;
17361;SDS011;8798;51.938;4.348;2023-05-07T13:21:07;15.70;;;10.20;;
17361;SDS011;8798;51.938;4.348;2023-05-07T13:23:36;17.33;;;10.18;;
17361;SDS011;8798;51.938;4.348;2023-05-07T13:26:05;18.02;;;10.52;;
17361;SDS011;8798;51.938;4.348;2023-05-07T13:28:51;14.85;;;10.63;;
17361;SDS011;8798;51.938;4.348;2023-05-07T13:31:19;17.90;;;10.83;;
17361;SDS011;8798;51.938;4.348;2023-05-07T13:33:47;13.87;;;10.07;;
17361;SDS011;8798;51.938;4.348;2023-05-07T13:36:15;16.57;;;10.97;;
17361;SDS011;8798;51.938;4.348;2023-05-07T13:38:43;16.10;;;10.15;;
17361;SDS011;8798;51.938;4.348;2023-05-07T13:41:12;18.85;;;10.23;;
17361;SDS011;8798;51.938;4.348;2023-05-07T13:43:41;16.27;;;11.13;;
17361;SDS011;8798;51.938;4.348;2023-05-07T13:46:10;18.90;;;10.88;;
17361;SDS011;8798;51.938;4.348;2023-05-07T13:48:37;18.45;;;10.73;;
17361;SDS011;8798;51.938;4.348;2023-05-07T13:51:05;16.77;;;11.10;;
17361;SDS011;8798;51.938;4.348;2023-05-07T13:53:33;16.00;;;10.60;;
17361;SDS011;8798;51.938;4.348;2023-05-07T13:56:01;18.88;;;11.18;;
17361;SDS011;8798;51.938;4.348;2023-05-07T13:58:30;16.88;;;10.70;;
17361;SDS011;8798;51.938;4.348;2023-05-07T14:00:59;16.67;;;11.00;;
17361;SDS011;8798;51.938;4.348;2023-05-07T14:03:28;18.63;;;10.80;;
17361;SDS011;8798;51.938;4.348;2023-05-07T14:05:58;18.38;;;11.57;;
17361;SDS011;8798;51.938;4.348;2023-05-07T14:08:26;14.73;;;10.73;;
17361;SDS011;8798;51.938;4.348;2023-05-07T14:10:57;19.07;;;11.00;;
17361;SDS011;8798;51.938;4.348;2023-05-07T14:13:24;18.70;;;11.27;;
17361;SDS011;8798;51.938;4.348;2023-05-07T14:15:53;16.80;;;10.73;;
17361;SDS011;8798;51.938;4.348;2023-05-07T14:18:21;15.73;;;10.73;;
17361;SDS011;8798;51.938;4.348;2023-05-07T14:20:50;14.73;;;11.00;;
17361;SDS011;8798;51.938;4.348;2023-05-07T14:23:18;20.87;;;11.30;;
17361;SDS011;8798;51.938;4.348;2023-05-07T14:25:47;22.33;;;11.67;;
17361;SDS011;8798;51.938;4.348;2023-05-07T14:28:14;21.80;;;11.60;;
17361;SDS011;8798;51.938;4.348;2023-05-07T14:30:42;22.30;;;11.80;;
17361;SDS011;8798;51.938;4.348;2023-05-07T14:33:10;23.43;;;12.47;;
17361;SDS011;8798;51.938;4.348;2023-05-07T14:35:38;20.07;;;11.83;;
17361;SDS011;8798;51.938;4.348;2023-05-07T14:38:07;21.00;;;12.43;;
17361;SDS011;8798;51.938;4.348;2023-05-07T14:40:35;21.33;;;12.63;;
17361;SDS011;8798;51.938;4.348;2023-05-07T14:43:03;19.50;;;12.73;;
17361;SDS011;8798;51.938;4.348;2023-05-07T14:45:31;22.00;;;12.93;;
17361;SDS011;8798;51.938;4.348;2023-05-07T14:47:58;22.77;;;12.70;;
17361;SDS011;8798;51.938;4.348;2023-05-07T14:50:26;19.67;;;13.03;;
17361;SDS011;8798;51.938;4.348;2023-05-07T14:52:54;21.10;;;12.50;;
17361;SDS011;8798;51.938;4.348;2023-05-07T14:55:23;23.90;;;13.13;;
17361;SDS011;8798;51.938;4.348;2023-05-07T14:57:51;21.77;;;13.50;;
17361;SDS011;8798;51.938;4.348;2023-05-07T15:00:19;22.73;;;12.77;;
17361;SDS011;8798;51.938;4.348;2023-05-07T15:02:47;22.57;;;12.33;;
17361;SDS011;8798;51.938;4.348;2023-05-07T15:05:15;20.80;;;12.27;;
17361;SDS011;8798;51.938;4.348;2023-05-07T15:07:44;21.67;;;12.17;;
17361;SDS011;8798;51.938;4.348;2023-05-07T15:10:12;20.37;;;12.40;;
17361;SDS011;8798;51.938;4.348;2023-05-07T15:12:41;21.37;;;12.07;;
17361;SDS011;8798;51.938;4.348;2023-05-07T15:15:10;19.23;;;11.17;;
17361;SDS011;8798;51.938;4.348;2023-05-07T15:17:38;20.40;;;11.20;;
17361;SDS011;8798;51.938;4.348;2023-05-07T15:20:06;20.17;;;11.53;;